17:55
Airports
History
Links
Donate
Help keep this website running!
PayPal
Bitcoin
This page is community maintained. The information is intended for PC simulator navigation or reference.
Always use approved charts for navigation.
SBOI
OIAPOQUE
OIAPOQUE (SBOI)
Oiapoque, Amapá, Brazil (68980)
(C)
Lat/Lng:3° 51' 19.76" N / 51° 47' 48.72" W
3.855488 / -51.796868
Elevation:63'ft / 19mMSL
ID / ICAO:SBOI
Runways:1
Longest:03-21
Asphalt 1,207m / 3,960ft
Controlled:Yes
Beacon:White-Yellow
METAR17:00 GMT 2018-01-18
Altimeter: 29.88
Visibility: 6.2 statute miles
Wind: 6 knots (from 120°)
Temp: 29°c / 84°f
Humidity: 70.1%

METAR: SBOI 181700Z 12006KT 9999 SCT023 29/23 Q1012

(Powered by phpweather)
Airport Radio Frequencies
Tower: 125.9
Nearby VORs <50NM
Nearby NDBs
Runway 03 / 21
Dimensions:1207 x 29.9m 3960' x 98'ft
Surface:Asphalt
Edge Lights:Low intensity
Runway 03 [A]Runway 21 [B]
Heading:011°TH 191°TH
Lat:
Lng:
3° 51' 0.58"N
51° 47' 52.57"W
3° 51' 38.93"N
51° 47' 44.88"W
User Notes and Comments
3° 51' 19.76" N / 51° 47' 48.72" W
Distance To
Airport ID:
Nearby Airports
(C) ST GEORGES DE L OYAPOCK 3.0 NM
SOOG N 350°
(C) Cayenne Rochambeau 77.1 NM
SOCA ( WX ) NNW 329°
(C) AMAPA 138.9 NM
SBAM SSE 152°
(U) MARIPASOULA 155.2 NM
SO63 W 264°
4 Aero Z Ferrus 203.2 NM
SNXE SSE 166°
4 Silvestre 205.2 NM
SSTQ S 181°
(U) Fazenda Santa Izabel 212.2 NM
SWVP SSE 151°
VFR Chart
Flight Planning at SkyVector.com